Portada
METAR-TAF:

METAR-TAF

Aeroports :

Lydd, Anglaterra

latitud: 50-57N, longitud: 000-56E, altitud: 3 m

Observació

L'informe es va fer fa 11 minuts, a les 16:20 UTC
Vent 11 kt del Sud-Oest
Temperatura 10°C
Humitat 82%
Pressió 1014 hPa
Visibilitat 10 km o més
Núvols disperses a una alçada de 3400 ft

METAR: EGMD 071620Z 23011KT 9999 SCT034 10/07 Q1014

Hora: 16:31 (16:31 UTC)

Pronòstic

L'informe es va fer fa 2 hores i 31 minuts, a les 14:00 UTC
Pronòstic vàlid del 07 a les 15 UTC al 07 a les 24 UTC
Vent 12 kt del Sud-Oest
Visibilitat 10 km o més
Núvols disperses a una alçada de 3500 ft
Evolucionant progressivament
l' 07 a les 20 UTC al 07 a les 22 UTC
Vent 20 kt del Oest/Sud-Oest amb ràfegues de 30 kt
Cel ennuvolat a una alçada de 1400 ft

TAF: EGMD 071400Z 0715/0724 23012KT 9999 SCT035 BECMG 0720/0722 24020G30KT BKN014

Observacions i pronòstics meteorològics de més de 4000 aeroports (METAR i TAF).

Les estacions disponibles són els punts grocs i vermells al mapa.

Posi el ratolí al punt desitjat per veure el nom de l'estació.

Feu clic per veure les observacions i els pronòstics meteorològics.

Per canviar el mapa: feu clic els botons verds amb una creu de color negre per apropar; al botó verd amb un guió per allunyar la imatge; o en les fletxes verdes per a mapes adjacents.


METAR-TAF: